Time;durP1;ratioP1;P1;durP2;ratioP2;P2;SDS_P1;SDS_P2;PMS_P1;PMS_P2;Temp;Humidity;BMP_temperature;BMP_pressure;BME280_temperature;BME280_humidity;BME280_pressure;Samples;Min_cycle;Max_cycle;Signal;HPM_P1;HPM_P2
2021/12/31 00:00:04;;;;;;;5.93;2.42;;;;;;;;;;6277268;22;20057;-69
2021/12/31 00:02:30;;;;;;;6.32;2.72;;;;;;;;;;6276109;22;20366;-69
2021/12/31 00:04:56;;;;;;;6.00;3.05;;;;;;;;;;6275026;22;20070;-68
2021/12/31 00:07:22;;;;;;;5.82;2.65;;;;;;;;;;6274741;22;20000;-69
2021/12/31 00:09:49;;;;;;;7.72;2.80;;;;;;;;;;6276222;22;20004;-69
2021/12/31 00:12:15;;;;;;;6.50;3.63;;;;;;;;;;6276878;22;20003;-69
2021/12/31 00:14:41;;;;;;;11.27;2.88;;;;;;;;;;6274489;22;20008;-70
2021/12/31 00:17:07;;;;;;;9.75;3.05;;;;;;;;;;6275642;22;20075;-69
2021/12/31 00:19:39;;;;;;;8.98;2.80;;;;;;;;;;6274560;22;20012;-70
2021/12/31 00:22:29;;;;;;;9.80;3.00;;;;;;;;;;6276567;22;20006;-68
2021/12/31 00:24:51;;;;;;;11.20;4.47;;;;;;;;;;6274625;22;20054;-71
2021/12/31 00:27:17;;;;;;;8.52;3.70;;;;;;;;;;6273388;22;20007;-70
2021/12/31 00:29:43;;;;;;;11.55;3.17;;;;;;;;;;6275867;22;20385;-68
2021/12/31 00:32:09;;;;;;;11.48;3.67;;;;;;;;;;6275482;22;20011;-68
2021/12/31 00:34:35;;;;;;;12.45;4.18;;;;;;;;;;6277785;22;20086;-67
2021/12/31 00:37:01;;;;;;;6.32;3.35;;;;;;;;;;6274752;22;20014;-69
2021/12/31 00:39:27;;;;;;;11.75;3.60;;;;;;;;;;6277160;22;20041;-69
2021/12/31 00:41:53;;;;;;;12.45;5.03;;;;;;;;;;6277370;22;20031;-70
2021/12/31 00:44:20;;;;;;;13.20;4.13;;;;;;;;;;6279118;22;20006;-68
2021/12/31 00:46:47;;;;;;;13.05;4.70;;;;;;;;;;6277043;22;19999;-70
2021/12/31 00:49:13;;;;;;;14.27;4.60;;;;;;;;;;6279111;22;20488;-71
2021/12/31 00:51:39;;;;;;;19.75;4.68;;;;;;;;;;6277221;22;20018;-69
2021/12/31 00:54:05;;;;;;;11.98;4.28;;;;;;;;;;6278043;22;20111;-70
2021/12/31 00:56:31;;;;;;;12.20;3.88;;;;;;;;;;6275848;22;20003;-70
2021/12/31 00:58:57;;;;;;;13.20;3.88;;;;;;;;;;6276965;22;20038;-71
2021/12/31 01:01:25;;;;;;;17.77;4.78;;;;;;;;;;6277464;22;20193;-67
2021/12/31 01:03:51;;;;;;;10.95;4.25;;;;;;;;;;6277270;22;20326;-69
2021/12/31 01:06:17;;;;;;;15.80;3.90;;;;;;;;;;6278758;22;19996;-67
2021/12/31 01:08:43;;;;;;;15.70;5.20;;;;;;;;;;6276163;22;20008;-70
2021/12/31 01:11:10;;;;;;;13.73;3.80;;;;;;;;;;6278414;22;20004;-67
2021/12/31 01:16:16;;;;;;;19.98;5.03;;;;;;;;;;6288861;22;20011;-67
2021/12/31 01:21:18;;;;;;;15.75;4.47;;;;;;;;;;6288271;22;20011;-69
2021/12/31 01:23:45;;;;;;;26.30;6.07;;;;;;;;;;6276942;22;20011;-68
2021/12/31 01:26:11;;;;;;;24.55;6.20;;;;;;;;;;6276354;22;20000;-69
2021/12/31 01:28:37;;;;;;;16.50;4.18;;;;;;;;;;6278123;22;20011;-69
2021/12/31 01:31:04;;;;;;;11.77;4.00;;;;;;;;;;6277113;22;20079;-70
2021/12/31 01:33:30;;;;;;;18.55;5.25;;;;;;;;;;6276812;22;20003;-67
2021/12/31 01:35:56;;;;;;;19.42;4.32;;;;;;;;;;6277245;22;20011;-70
2021/12/31 01:38:22;;;;;;;20.67;5.70;;;;;;;;;;6274491;22;20035;-67
2021/12/31 01:40:49;;;;;;;18.77;4.75;;;;;;;;;;6281160;22;19996;-70
2021/12/31 01:43:15;;;;;;;17.88;6.07;;;;;;;;;;6276703;22;20082;-70
2021/12/31 01:45:47;;;;;;;23.70;6.07;;;;;;;;;;6277144;22;19996;-67
2021/12/31 01:50:58;;;;;;;20.73;4.60;;;;;;;;;;6278098;22;20069;-66
2021/12/31 01:53:26;;;;;;;24.98;5.13;;;;;;;;;;6275427;22;20010;-69
2021/12/31 01:55:53;;;;;;;28.70;5.43;;;;;;;;;;6277505;22;20079;-69
2021/12/31 01:58:21;;;;;;;11.85;4.75;;;;;;;;;;6276311;22;20635;-69
2021/12/31 02:00:48;;;;;;;20.98;5.00;;;;;;;;;;6277450;22;20065;-69
2021/12/31 02:03:14;;;;;;;18.45;4.97;;;;;;;;;;6278149;22;20007;-68
2021/12/31 02:05:40;;;;;;;17.55;4.90;;;;;;;;;;6276938;22;20007;-70
2021/12/31 02:08:06;;;;;;;15.40;5.25;;;;;;;;;;6276929;22;20011;-66
2021/12/31 02:10:32;;;;;;;13.90;4.85;;;;;;;;;;6277088;22;20046;-70
2021/12/31 02:12:58;;;;;;;10.48;4.88;;;;;;;;;;6276811;22;20004;-68
2021/12/31 02:15:30;;;;;;;10.27;3.53;;;;;;;;;;6280923;22;20008;-69
2021/12/31 02:17:56;;;;;;;13.30;3.90;;;;;;;;;;6276480;22;20051;-68
2021/12/31 02:20:23;;;;;;;13.18;3.38;;;;;;;;;;6275839;22;20004;-68
2021/12/31 02:22:55;;;;;;;14.82;4.93;;;;;;;;;;6276627;22;20018;-70
2021/12/31 02:25:24;;;;;;;14.43;4.30;;;;;;;;;;6276824;22;20023;-69
2021/12/31 02:27:50;;;;;;;10.48;3.50;;;;;;;;;;6279000;22;20000;-68
2021/12/31 02:30:16;;;;;;;16.17;4.47;;;;;;;;;;6275064;22;20050;-68
2021/12/31 02:32:42;;;;;;;14.38;3.83;;;;;;;;;;6276214;22;20006;-68
2021/12/31 02:35:09;;;;;;;11.02;4.00;;;;;;;;;;6275511;22;20571;-66
2021/12/31 02:37:35;;;;;;;13.50;3.78;;;;;;;;;;6276562;22;20022;-69
2021/12/31 02:40:03;;;;;;;15.18;5.00;;;;;;;;;;6278663;22;20165;-69
2021/12/31 02:42:29;;;;;;;13.65;4.35;;;;;;;;;;6275673;22;20062;-69
2021/12/31 02:44:56;;;;;;;18.33;4.38;;;;;;;;;;6275835;22;20441;-70
2021/12/31 02:47:22;;;;;;;15.02;4.03;;;;;;;;;;6276230;22;19996;-69
2021/12/31 02:49:49;;;;;;;13.27;4.10;;;;;;;;;;6273994;22;20027;-67
2021/12/31 02:52:16;;;;;;;11.10;3.85;;;;;;;;;;6278532;22;20509;-70
2021/12/31 02:54:45;;;;;;;11.00;3.45;;;;;;;;;;6276125;22;20003;-67
2021/12/31 02:57:12;;;;;;;9.80;3.20;;;;;;;;;;6276435;22;20004;-68
2021/12/31 02:59:38;;;;;;;11.80;4.03;;;;;;;;;;6275131;22;20326;-68
2021/12/31 03:02:06;;;;;;;13.07;3.50;;;;;;;;;;6278858;22;20380;-68
2021/12/31 03:04:34;;;;;;;11.40;3.50;;;;;;;;;;6276430;22;20071;-67
2021/12/31 03:07:02;;;;;;;20.23;4.65;;;;;;;;;;6275358;22;20010;-68
2021/12/31 03:09:28;;;;;;;17.10;3.72;;;;;;;;;;6276110;22;20069;-69
2021/12/31 03:11:56;;;;;;;12.15;3.80;;;;;;;;;;6275217;22;20018;-68
2021/12/31 03:14:22;;;;;;;10.43;3.78;;;;;;;;;;6276772;22;20004;-69
2021/12/31 03:16:49;;;;;;;15.82;3.55;;;;;;;;;;6275698;22;19999;-69
2021/12/31 03:19:16;;;;;;;15.68;3.88;;;;;;;;;;6275619;22;20007;-70
2021/12/31 03:21:42;;;;;;;13.52;3.42;;;;;;;;;;6275598;22;19996;-67
2021/12/31 03:24:08;;;;;;;12.40;2.97;;;;;;;;;;6275927;22;20007;-69
2021/12/31 03:26:34;;;;;;;12.38;3.80;;;;;;;;;;6279730;22;20008;-68
2021/12/31 03:29:00;;;;;;;10.02;3.67;;;;;;;;;;6276058;22;20010;-67
2021/12/31 03:31:27;;;;;;;15.35;4.57;;;;;;;;;;6277273;22;20105;-68
2021/12/31 03:33:53;;;;;;;12.43;3.08;;;;;;;;;;6275923;22;20011;-70
2021/12/31 03:36:19;;;;;;;16.13;3.38;;;;;;;;;;6275513;22;20087;-67
2021/12/31 03:38:45;;;;;;;9.38;3.67;;;;;;;;;;6275808;22;20012;-69
2021/12/31 03:41:12;;;;;;;12.95;4.22;;;;;;;;;;6275385;22;19999;-68
2021/12/31 03:43:38;;;;;;;11.63;4.60;;;;;;;;;;6274858;22;20004;-69
2021/12/31 03:46:04;;;;;;;9.05;4.25;;;;;;;;;;6276276;22;20015;-68
2021/12/31 03:48:30;;;;;;;7.55;2.92;;;;;;;;;;6277824;22;20053;-67
2021/12/31 03:50:56;;;;;;;8.65;3.05;;;;;;;;;;6271968;22;20030;-70
2021/12/31 03:53:22;;;;;;;13.85;4.43;;;;;;;;;;6275468;22;20006;-68
2021/12/31 03:55:48;;;;;;;10.07;3.28;;;;;;;;;;6276032;22;20311;-69
2021/12/31 03:58:14;;;;;;;8.85;2.85;;;;;;;;;;6274909;22;20061;-69
2021/12/31 04:00:40;;;;;;;15.23;4.80;;;;;;;;;;6277532;22;20007;-70
2021/12/31 04:03:08;;;;;;;13.95;4.25;;;;;;;;;;6273818;22;20053;-69
2021/12/31 04:05:34;;;;;;;9.20;3.28;;;;;;;;;;6275960;22;20000;-69
2021/12/31 04:08:00;;;;;;;7.25;3.08;;;;;;;;;;6275408;22;20008;-67
2021/12/31 04:10:28;;;;;;;9.30;3.50;;;;;;;;;;6278150;22;20074;-71
2021/12/31 04:12:55;;;;;;;11.95;4.63;;;;;;;;;;6277468;22;20004;-69
2021/12/31 04:15:21;;;;;;;13.23;4.10;;;;;;;;;;6278574;22;20007;-69
2021/12/31 04:17:47;;;;;;;14.57;4.60;;;;;;;;;;6274308;22;20011;-69
2021/12/31 04:20:38;;;;;;;9.80;3.88;;;;;;;;;;6273437;22;20010;-70
2021/12/31 04:23:02;;;;;;;9.05;3.20;;;;;;;;;;6276225;22;20015;-70
2021/12/31 04:25:28;;;;;;;7.53;3.85;;;;;;;;;;6273101;22;20003;-70
2021/12/31 04:27:54;;;;;;;16.77;5.10;;;;;;;;;;6274872;22;20004;-70
2021/12/31 04:30:21;;;;;;;11.43;3.25;;;;;;;;;;6276104;22;20023;-68
2021/12/31 04:32:47;;;;;;;16.30;4.20;;;;;;;;;;6276324;22;20070;-69
2021/12/31 04:35:13;;;;;;;12.75;4.47;;;;;;;;;;6275964;22;20004;-69
2021/12/31 04:37:41;;;;;;;9.60;3.83;;;;;;;;;;6273804;22;20004;-69
2021/12/31 04:40:08;;;;;;;13.50;3.67;;;;;;;;;;6274657;22;19996;-68
2021/12/31 04:42:34;;;;;;;11.20;3.30;;;;;;;;;;6274146;22;20003;-71
2021/12/31 04:45:00;;;;;;;8.93;3.80;;;;;;;;;;6274700;22;20062;-70
2021/12/31 04:47:26;;;;;;;16.92;3.38;;;;;;;;;;6276640;22;20492;-69
2021/12/31 04:49:52;;;;;;;14.38;3.65;;;;;;;;;;6276195;22;20012;-68
2021/12/31 04:52:18;;;;;;;31.27;5.70;;;;;;;;;;6275727;22;20007;-68
2021/12/31 04:54:44;;;;;;;14.27;4.53;;;;;;;;;;6274919;22;20014;-69
2021/12/31 04:57:10;;;;;;;16.55;5.40;;;;;;;;;;6278480;22;20095;-69
2021/12/31 04:59:36;;;;;;;14.38;3.83;;;;;;;;;;6274108;22;20014;-68
2021/12/31 05:02:03;;;;;;;11.45;4.55;;;;;;;;;;6276606;22;20007;-70
2021/12/31 05:04:29;;;;;;;15.90;4.20;;;;;;;;;;6275511;22;20183;-70
2021/12/31 05:06:55;;;;;;;12.75;3.78;;;;;;;;;;6275517;22;19996;-66
2021/12/31 05:09:21;;;;;;;15.57;6.30;;;;;;;;;;6278523;22;19999;-67
2021/12/31 05:11:47;;;;;;;15.70;4.50;;;;;;;;;;6274668;22;20031;-69
2021/12/31 05:14:13;;;;;;;15.25;4.65;;;;;;;;;;6278070;22;20014;-67
2021/12/31 05:16:39;;;;;;;24.33;4.70;;;;;;;;;;6274335;22;19999;-69
2021/12/31 05:19:06;;;;;;;15.48;4.35;;;;;;;;;;6276023;22;20007;-68
2021/12/31 05:21:32;;;;;;;16.80;4.57;;;;;;;;;;6274105;22;20125;-69
2021/12/31 05:23:58;;;;;;;24.15;5.82;;;;;;;;;;6274263;22;20012;-66
2021/12/31 05:26:25;;;;;;;18.42;4.95;;;;;;;;;;6275921;22;20004;-69
2021/12/31 05:28:51;;;;;;;21.33;4.80;;;;;;;;;;6277709;22;20027;-69
2021/12/31 05:31:17;;;;;;;21.15;5.50;;;;;;;;;;6276546;22;20003;-69
2021/12/31 05:33:43;;;;;;;22.88;5.28;;;;;;;;;;6277481;22;20186;-67
2021/12/31 05:36:09;;;;;;;15.45;5.00;;;;;;;;;;6276074;22;20000;-70
2021/12/31 05:38:35;;;;;;;26.58;5.88;;;;;;;;;;6277133;22;20007;-69
2021/12/31 05:41:01;;;;;;;22.20;5.63;;;;;;;;;;6276846;22;20050;-67
2021/12/31 05:43:28;;;;;;;19.30;5.32;;;;;;;;;;6276786;22;20007;-68
2021/12/31 05:45:54;;;;;;;21.98;6.63;;;;;;;;;;6276339;22;20550;-68
2021/12/31 05:48:20;;;;;;;26.13;5.82;;;;;;;;;;6277141;22;20008;-69
2021/12/31 05:50:46;;;;;;;17.75;4.63;;;;;;;;;;6277279;22;20087;-67
2021/12/31 05:53:12;;;;;;;17.73;5.10;;;;;;;;;;6276522;22;20008;-70
2021/12/31 05:55:38;;;;;;;29.88;6.05;;;;;;;;;;6276554;22;20351;-70
2021/12/31 05:58:05;;;;;;;23.20;7.13;;;;;;;;;;6274992;22;20032;-66
2021/12/31 06:00:31;;;;;;;21.23;5.43;;;;;;;;;;6275967;22;20016;-68
2021/12/31 06:02:57;;;;;;;11.38;4.30;;;;;;;;;;6280512;22;19995;-69
2021/12/31 06:05:25;;;;;;;17.80;5.13;;;;;;;;;;6277767;22;20180;-68
2021/12/31 06:07:52;;;;;;;10.65;3.67;;;;;;;;;;6276888;22;20006;-70
2021/12/31 06:10:18;;;;;;;13.30;4.45;;;;;;;;;;6277138;22;20004;-67
2021/12/31 06:12:45;;;;;;;14.00;4.13;;;;;;;;;;6276544;22;20330;-70
2021/12/31 06:15:13;;;;;;;8.27;3.47;;;;;;;;;;6277005;22;20020;-69
2021/12/31 06:17:40;;;;;;;12.32;3.55;;;;;;;;;;6277051;22;20007;-70
2021/12/31 06:20:06;;;;;;;15.50;4.03;;;;;;;;;;6276751;22;20057;-69
2021/12/31 06:22:32;;;;;;;13.30;5.78;;;;;;;;;;6275388;22;20006;-66
2021/12/31 06:24:58;;;;;;;16.40;4.35;;;;;;;;;;6277217;22;20299;-68
2021/12/31 06:27:24;;;;;;;16.13;5.10;;;;;;;;;;6274410;22;20007;-67
2021/12/31 06:29:50;;;;;;;20.33;5.65;;;;;;;;;;6278208;22;20102;-69
2021/12/31 06:32:17;;;;;;;13.48;5.10;;;;;;;;;;6275309;22;20010;-69
2021/12/31 06:34:43;;;;;;;17.13;4.32;;;;;;;;;;6277332;22;20007;-68
2021/12/31 06:37:09;;;;;;;15.40;4.55;;;;;;;;;;6276573;22;19999;-69
2021/12/31 06:39:36;;;;;;;21.50;5.95;;;;;;;;;;6279203;22;20032;-66
2021/12/31 06:42:03;;;;;;;17.02;5.05;;;;;;;;;;6275273;22;20007;-66
2021/12/31 06:44:32;;;;;;;15.73;4.63;;;;;;;;;;6277353;22;20000;-70
2021/12/31 06:46:58;;;;;;;15.50;4.55;;;;;;;;;;6276243;22;20038;-66
2021/12/31 06:49:24;;;;;;;14.65;4.72;;;;;;;;;;6278070;22;20007;-70
2021/12/31 06:51:50;;;;;;;11.32;3.70;;;;;;;;;;6275716;22;20003;-70
2021/12/31 06:54:17;;;;;;;11.27;4.10;;;;;;;;;;6276175;22;20031;-68
2021/12/31 06:56:43;;;;;;;16.92;3.92;;;;;;;;;;6276091;22;19996;-67
2021/12/31 06:59:09;;;;;;;9.57;4.25;;;;;;;;;;6275020;22;20006;-71
2021/12/31 07:01:35;;;;;;;14.68;3.92;;;;;;;;;;6276423;22;20018;-68
2021/12/31 07:04:01;;;;;;;9.18;3.63;;;;;;;;;;6276598;22;20008;-69
2021/12/31 07:06:27;;;;;;;16.40;4.72;;;;;;;;;;6275518;22;19996;-70
2021/12/31 07:08:53;;;;;;;15.68;5.60;;;;;;;;;;6276963;22;20334;-70
2021/12/31 07:11:22;;;;;;;13.77;3.20;;;;;;;;;;6274886;22;20003;-66
2021/12/31 07:13:48;;;;;;;10.10;3.60;;;;;;;;;;6276489;22;20007;-69
2021/12/31 07:16:14;;;;;;;13.52;4.28;;;;;;;;;;6275411;22;20012;-65
2021/12/31 07:18:40;;;;;;;10.02;3.72;;;;;;;;;;6278182;22;20000;-69
2021/12/31 07:21:06;;;;;;;14.07;3.50;;;;;;;;;;6275500;22;20079;-66
2021/12/31 07:23:32;;;;;;;12.48;4.15;;;;;;;;;;6276212;22;20304;-69
2021/12/31 07:25:58;;;;;;;10.18;3.85;;;;;;;;;;6274809;22;20418;-69
2021/12/31 07:28:24;;;;;;;13.68;3.85;;;;;;;;;;6276564;22;20042;-71
2021/12/31 07:30:51;;;;;;;23.63;3.97;;;;;;;;;;6275073;22;20003;-69
2021/12/31 07:33:18;;;;;;;24.45;4.90;;;;;;;;;;6275941;22;20008;-68
2021/12/31 07:35:44;;;;;;;11.32;2.85;;;;;;;;;;6273507;22;20007;-69
2021/12/31 07:38:19;;;;;;;14.20;4.20;;;;;;;;;;6276854;22;20014;-69
2021/12/31 07:40:45;;;;;;;12.45;3.17;;;;;;;;;;6276713;22;20398;-67
2021/12/31 07:43:11;;;;;;;13.60;3.50;;;;;;;;;;6276052;22;20053;-71
2021/12/31 07:45:38;;;;;;;12.15;4.38;;;;;;;;;;6275712;22;20070;-68
2021/12/31 07:48:04;;;;;;;14.90;3.60;;;;;;;;;;6277007;22;20079;-70
2021/12/31 07:50:31;;;;;;;12.05;4.05;;;;;;;;;;6275090;22;20387;-68
2021/12/31 07:52:57;;;;;;;11.57;3.67;;;;;;;;;;6273088;22;20012;-69
2021/12/31 07:55:23;;;;;;;15.88;3.95;;;;;;;;;;6276319;22;20392;-68
2021/12/31 07:57:49;;;;;;;11.10;4.35;;;;;;;;;;6278619;22;20004;-70
2021/12/31 08:00:15;;;;;;;12.85;4.03;;;;;;;;;;6276610;22;20004;-69
2021/12/31 08:02:41;;;;;;;10.07;4.35;;;;;;;;;;6275248;22;20004;-70
2021/12/31 08:05:08;;;;;;;9.48;3.15;;;;;;;;;;6273929;22;19999;-70
2021/12/31 08:07:34;;;;;;;16.02;3.53;;;;;;;;;;6275318;22;20065;-71
2021/12/31 08:10:02;;;;;;;10.20;3.53;;;;;;;;;;6276198;22;19999;-68
2021/12/31 08:12:29;;;;;;;12.05;3.17;;;;;;;;;;6275360;22;20025;-70
2021/12/31 08:14:55;;;;;;;18.45;3.60;;;;;;;;;;6274964;22;20022;-69
2021/12/31 08:17:21;;;;;;;8.88;4.43;;;;;;;;;;6272599;22;20023;-67
2021/12/31 08:19:47;;;;;;;11.52;3.88;;;;;;;;;;6274555;22;20028;-70
2021/12/31 08:22:13;;;;;;;12.00;3.20;;;;;;;;;;6274584;22;20078;-68
2021/12/31 08:24:39;;;;;;;14.65;3.53;;;;;;;;;;6273188;22;20004;-70
2021/12/31 08:27:05;;;;;;;19.58;4.05;;;;;;;;;;6275984;22;20003;-70
2021/12/31 08:29:32;;;;;;;14.18;3.95;;;;;;;;;;6274609;22;20079;-68
2021/12/31 08:31:58;;;;;;;15.07;3.38;;;;;;;;;;6271287;22;20539;-70
2021/12/31 08:34:24;;;;;;;13.27;4.50;;;;;;;;;;6275320;22;20142;-67
2021/12/31 08:36:50;;;;;;;11.68;4.15;;;;;;;;;;6274203;22;20003;-69
2021/12/31 08:39:16;;;;;;;11.48;3.53;;;;;;;;;;6274861;22;20004;-67
2021/12/31 08:41:42;;;;;;;17.90;4.97;;;;;;;;;;6276152;22;20086;-69
2021/12/31 08:44:08;;;;;;;15.20;4.32;;;;;;;;;;6275568;22;20004;-69
2021/12/31 08:46:35;;;;;;;12.38;4.13;;;;;;;;;;6275403;22;20003;-67
2021/12/31 08:49:01;;;;;;;12.65;3.45;;;;;;;;;;6276242;22;20007;-71
2021/12/31 08:51:27;;;;;;;16.48;6.53;;;;;;;;;;6276135;22;20004;-67
2021/12/31 08:53:53;;;;;;;10.50;3.25;;;;;;;;;;6276290;22;20014;-71
2021/12/31 08:56:21;;;;;;;11.43;3.65;;;;;;;;;;6276418;22;19999;-66
2021/12/31 08:58:47;;;;;;;13.68;3.15;;;;;;;;;;6248732;22;20007;-70
2021/12/31 09:01:13;;;;;;;11.27;3.88;;;;;;;;;;6278887;22;19996;-70
2021/12/31 09:03:40;;;;;;;12.23;3.55;;;;;;;;;;6276408;22;20606;-71
2021/12/31 09:06:06;;;;;;;14.70;5.25;;;;;;;;;;6278362;22;20465;-70
2021/12/31 09:08:33;;;;;;;8.68;3.55;;;;;;;;;;6279852;22;20010;-71
2021/12/31 09:10:59;;;;;;;8.45;3.17;;;;;;;;;;6278404;22;20012;-70
2021/12/31 09:13:27;;;;;;;17.70;5.03;;;;;;;;;;6278132;22;20008;-70
2021/12/31 09:15:54;;;;;;;14.38;3.78;;;;;;;;;;6279037;22;20330;-68
2021/12/31 09:18:20;;;;;;;14.32;3.67;;;;;;;;;;6278638;22;20007;-71
2021/12/31 09:20:46;;;;;;;10.55;2.88;;;;;;;;;;6278057;22;20027;-69
2021/12/31 09:23:12;;;;;;;9.57;3.50;;;;;;;;;;6275483;22;20023;-70
2021/12/31 09:25:38;;;;;;;14.80;3.78;;;;;;;;;;6277798;22;20023;-70
2021/12/31 09:28:04;;;;;;;7.18;2.85;;;;;;;;;;6279560;22;20035;-68
2021/12/31 09:30:31;;;;;;;14.45;3.38;;;;;;;;;;6276894;22;20003;-69
2021/12/31 09:32:57;;;;;;;10.50;3.97;;;;;;;;;;6277784;22;20004;-71
2021/12/31 09:35:23;;;;;;;7.28;3.08;;;;;;;;;;6276973;22;20482;-66
2021/12/31 09:37:49;;;;;;;9.85;3.33;;;;;;;;;;6278524;22;20011;-71
2021/12/31 09:40:18;;;;;;;8.82;2.85;;;;;;;;;;6276798;22;20030;-70
2021/12/31 09:43:09;;;;;;;12.18;3.70;;;;;;;;;;6279487;22;20300;-68
2021/12/31 09:45:36;;;;;;;16.08;3.90;;;;;;;;;;6269538;22;20008;-68
2021/12/31 09:48:02;;;;;;;18.35;4.90;;;;;;;;;;6279138;22;20002;-68
2021/12/31 09:50:28;;;;;;;13.82;3.72;;;;;;;;;;6276511;22;19999;-69
2021/12/31 09:52:55;;;;;;;11.68;3.38;;;;;;;;;;6277937;22;20426;-71
2021/12/31 09:55:39;;;;;;;24.05;7.20;;;;;;;;;;6276260;22;20007;-70
2021/12/31 09:58:06;;;;;;;13.77;5.80;;;;;;;;;;6278969;22;20010;-67
2021/12/31 10:00:32;;;;;;;18.27;4.95;;;;;;;;;;6277960;22;20365;-66
2021/12/31 10:03:18;;;;;;;16.48;3.88;;;;;;;;;;6277795;22;20045;-69
2021/12/31 10:05:44;;;;;;;;;;;;;;;;;;6279128;22;20026;-74
2021/12/31 10:08:16;;;;;;;13.63;6.25;;;;;;;;;;6279770;22;20330;-68
2021/12/31 10:10:42;;;;;;;14.73;4.65;;;;;;;;;;6276566;22;20004;-69
2021/12/31 10:13:08;;;;;;;12.50;4.30;;;;;;;;;;6276977;22;20019;-70
2021/12/31 10:15:41;;;;;;;16.55;4.10;;;;;;;;;;6277110;22;20003;-71
2021/12/31 10:18:12;;;;;;;14.32;4.43;;;;;;;;;;6279973;22;20014;-68
2021/12/31 10:20:49;;;;;;;14.73;3.75;;;;;;;;;;6277777;22;20000;-68
2021/12/31 10:23:16;;;;;;;16.52;4.13;;;;;;;;;;6278052;22;20015;-69
2021/12/31 10:25:42;;;;;;;13.35;4.28;;;;;;;;;;6277349;22;19999;-70
2021/12/31 10:28:09;;;;;;;14.25;4.38;;;;;;;;;;6281275;22;20003;-69
2021/12/31 10:30:36;;;;;;;10.75;3.25;;;;;;;;;;6276506;22;20598;-71
2021/12/31 10:33:02;;;;;;;12.02;5.07;;;;;;;;;;6277128;22;20003;-67
2021/12/31 10:35:37;;;;;;;16.25;4.45;;;;;;;;;;6276973;22;20434;-70
2021/12/31 10:38:06;;;;;;;15.60;3.72;;;;;;;;;;6276662;22;20225;-69
2021/12/31 10:40:32;;;;;;;15.48;5.05;;;;;;;;;;6267750;22;20006;-68
2021/12/31 10:43:32;;;;;;;12.88;3.47;;;;;;;;;;6279068;22;20000;-71
2021/12/31 10:46:03;;;;;;;12.88;3.35;;;;;;;;;;6271491;22;20498;-72
2021/12/31 10:48:46;;;;;;;12.60;4.07;;;;;;;;;;6269670;22;20512;-69
2021/12/31 10:51:13;;;;;;;9.77;4.03;;;;;;;;;;6270277;22;19999;-69
2021/12/31 10:53:39;;;;;;;13.02;3.80;;;;;;;;;;6269183;22;20030;-70
2021/12/31 10:56:07;;;;;;;13.15;5.00;;;;;;;;;;6269046;22;20464;-66
2021/12/31 10:58:33;;;;;;;12.27;3.92;;;;;;;;;;6275358;22;20457;-70
2021/12/31 11:00:59;;;;;;;11.68;3.80;;;;;;;;;;6269755;22;20004;-69
2021/12/31 11:03:26;;;;;;;12.25;4.65;;;;;;;;;;6270701;22;20004;-70
2021/12/31 11:05:53;;;;;;;18.40;7.50;;;;;;;;;;6270377;22;20087;-71
2021/12/31 11:08:20;;;;;;;10.55;4.25;;;;;;;;;;6271313;22;20008;-68
2021/12/31 11:10:46;;;;;;;13.93;4.38;;;;;;;;;;6271067;22;20007;-70
2021/12/31 11:13:20;;;;;;;14.73;4.68;;;;;;;;;;6271445;22;20015;-68
2021/12/31 11:15:47;;;;;;;13.68;4.20;;;;;;;;;;6270511;22;20010;-70
2021/12/31 11:18:18;;;;;;;13.07;5.72;;;;;;;;;;6279054;22;20057;-72
2021/12/31 11:20:46;;;;;;;17.90;4.20;;;;;;;;;;6268021;22;20007;-71
2021/12/31 11:23:12;;;;;;;16.02;4.88;;;;;;;;;;6267726;22;20042;-69
2021/12/31 11:25:50;;;;;;;18.17;4.53;;;;;;;;;;6268716;22;20011;-68
2021/12/31 11:28:23;;;;;;;15.30;4.60;;;;;;;;;;6271945;22;20489;-70
2021/12/31 11:30:49;;;;;;;11.25;4.10;;;;;;;;;;6266418;22;20007;-67
2021/12/31 11:33:18;;;;;;;15.85;3.92;;;;;;;;;;6268629;22;20377;-70
2021/12/31 11:35:53;;;;;;;14.00;4.30;;;;;;;;;;6265180;22;20015;-69
2021/12/31 11:38:19;;;;;;;;;;;;;;;;;;6264129;22;20008;-69
2021/12/31 11:40:50;;;;;;;13.10;4.00;;;;;;;;;;6262353;22;20029;-69
2021/12/31 11:43:23;;;;;;;15.45;3.55;;;;;;;;;;6266202;22;20404;-70
2021/12/31 11:46:07;;;;;;;11.00;4.07;;;;;;;;;;6268326;22;20086;-69
2021/12/31 11:48:54;;;;;;;10.80;4.13;;;;;;;;;;6266869;22;20595;-70
2021/12/31 11:51:20;;;;;;;13.05;3.53;;;;;;;;;;6266922;22;20027;-69
2021/12/31 11:54:15;;;;;;;11.23;3.45;;;;;;;;;;6267213;22;20004;-69
2021/12/31 11:56:47;;;;;;;11.10;3.80;;;;;;;;;;6265821;22;20069;-70
2021/12/31 11:59:16;;;;;;;15.40;3.55;;;;;;;;;;6265989;22;20014;-70
2021/12/31 12:01:51;;;;;;;11.98;3.78;;;;;;;;;;6265195;22;20003;-68
2021/12/31 12:04:29;;;;;;;14.97;4.57;;;;;;;;;;6265163;22;20830;-71
2021/12/31 12:06:59;;;;;;;20.75;5.43;;;;;;;;;;6267445;22;20476;-69
2021/12/31 12:09:46;;;;;;;11.52;3.88;;;;;;;;;;6264373;22;20011;-70
2021/12/31 12:12:13;;;;;;;11.57;4.50;;;;;;;;;;6242385;22;20098;-72
2021/12/31 12:14:42;;;;;;;9.77;3.45;;;;;;;;;;6266806;22;20000;-71
2021/12/31 12:17:09;;;;;;;15.57;5.90;;;;;;;;;;6269337;22;20007;-71
2021/12/31 12:19:48;;;;;;;20.00;4.78;;;;;;;;;;6266903;22;20046;-70
2021/12/31 12:22:25;;;;;;;39.22;15.98;;;;;;;;;;6268062;22;20026;-70
2021/12/31 12:24:52;;;;;;;18.70;7.32;;;;;;;;;;6271412;22;20022;-71
2021/12/31 12:27:19;;;;;;;13.82;5.10;;;;;;;;;;6273638;22;20000;-71
2021/12/31 12:29:46;;;;;;;16.15;4.65;;;;;;;;;;6266600;22;20003;-76
2021/12/31 12:32:13;;;;;;;17.48;4.45;;;;;;;;;;6267294;22;20010;-70
2021/12/31 12:34:39;;;;;;;13.45;5.05;;;;;;;;;;6266723;22;20007;-68
2021/12/31 12:37:05;;;;;;;14.00;4.57;;;;;;;;;;6268530;22;20012;-68
2021/12/31 12:39:31;;;;;;;12.82;4.00;;;;;;;;;;6266602;22;20007;-72
2021/12/31 12:41:57;;;;;;;14.15;4.78;;;;;;;;;;6267139;22;20011;-68
2021/12/31 12:44:23;;;;;;;14.85;4.65;;;;;;;;;;6267089;22;19999;-71
2021/12/31 12:46:54;;;;;;;18.10;4.20;;;;;;;;;;6267934;22;20015;-68
2021/12/31 12:49:20;;;;;;;12.48;4.45;;;;;;;;;;6264554;22;20008;-70
2021/12/31 12:51:48;;;;;;;15.00;3.72;;;;;;;;;;6267241;22;20013;-67
2021/12/31 12:54:19;;;;;;;13.65;4.53;;;;;;;;;;6265861;22;20066;-68
2021/12/31 12:56:46;;;;;;;15.75;4.47;;;;;;;;;;6268833;22;20093;-67
2021/12/31 12:59:19;;;;;;;14.20;3.15;;;;;;;;;;6264068;22;20004;-70
2021/12/31 13:01:49;;;;;;;14.95;4.63;;;;;;;;;;6265155;22;19999;-71
2021/12/31 13:04:18;;;;;;;12.90;4.32;;;;;;;;;;6264337;22;20771;-72
2021/12/31 13:07:07;;;;;;;12.50;3.60;;;;;;;;;;6267461;22;20003;-71
2021/12/31 13:09:36;;;;;;;7.72;2.92;;;;;;;;;;6268045;22;20003;-71
2021/12/31 13:12:04;;;;;;;14.50;5.03;;;;;;;;;;6268310;22;20007;-74
2021/12/31 13:14:35;;;;;;;13.80;4.10;;;;;;;;;;6267340;22;20008;-69
2021/12/31 13:17:02;;;;;;;16.15;4.32;;;;;;;;;;6273635;22;20018;-71
2021/12/31 13:19:29;;;;;;;8.18;3.88;;;;;;;;;;6267874;22;20040;-70
2021/12/31 13:22:09;;;;;;;14.10;4.43;;;;;;;;;;6266703;22;20295;-71
2021/12/31 13:24:36;;;;;;;12.80;3.63;;;;;;;;;;6266767;22;20359;-71
2021/12/31 13:27:05;;;;;;;10.52;3.70;;;;;;;;;;6268044;22;20012;-70
2021/12/31 13:29:32;;;;;;;12.85;4.13;;;;;;;;;;6265349;22;20015;-71
2021/12/31 13:32:06;;;;;;;17.02;4.40;;;;;;;;;;6267118;22;20434;-69
2021/12/31 13:34:48;;;;;;;11.77;4.10;;;;;;;;;;6265057;22;20061;-67
2021/12/31 13:37:24;;;;;;;12.35;4.18;;;;;;;;;;6265787;22;20014;-66
2021/12/31 13:39:50;;;;;;;8.90;4.05;;;;;;;;;;6266241;22;20008;-70
2021/12/31 13:42:18;;;;;;;12.13;3.92;;;;;;;;;;6267699;22;20057;-66
2021/12/31 13:44:48;;;;;;;13.10;3.85;;;;;;;;;;6262835;22;20008;-66
2021/12/31 13:47:16;;;;;;;14.30;3.88;;;;;;;;;;6264456;22;20008;-68
2021/12/31 13:49:47;;;;;;;13.35;5.50;;;;;;;;;;6266684;22;20008;-66
2021/12/31 13:52:18;;;;;;;16.15;4.38;;;;;;;;;;6264253;22;20007;-67
2021/12/31 13:54:44;;;;;;;10.48;5.45;;;;;;;;;;6263405;22;20070;-68
2021/12/31 13:57:26;;;;;;;13.05;4.57;;;;;;;;;;6263155;22;20008;-66
2021/12/31 13:59:53;;;;;;;16.85;4.30;;;;;;;;;;6264691;22;20094;-68
2021/12/31 14:02:24;;;;;;;14.70;4.97;;;;;;;;;;6261350;22;20004;-65
2021/12/31 14:04:53;;;;;;;14.82;4.10;;;;;;;;;;6265743;22;20026;-67
2021/12/31 14:07:31;;;;;;;15.30;4.65;;;;;;;;;;6264324;22;20008;-68
2021/12/31 14:09:58;;;;;;;12.80;4.85;;;;;;;;;;6268313;22;20448;-66
2021/12/31 14:12:24;;;;;;;14.20;4.45;;;;;;;;;;6266830;22;20003;-64
2021/12/31 14:14:50;;;;;;;12.30;4.18;;;;;;;;;;6267520;22;20015;-66
2021/12/31 14:17:16;;;;;;;14.75;4.50;;;;;;;;;;6268803;22;20770;-67
2021/12/31 14:19:43;;;;;;;13.25;5.75;;;;;;;;;;6265477;22;20057;-67
2021/12/31 14:22:09;;;;;;;19.20;8.82;;;;;;;;;;6267276;22;20078;-68
2021/12/31 14:24:36;;;;;;;12.02;4.15;;;;;;;;;;6267540;22;20013;-67
2021/12/31 14:27:06;;;;;;;15.85;5.70;;;;;;;;;;6268407;22;20098;-67
2021/12/31 14:29:33;;;;;;;11.45;3.85;;;;;;;;;;6266159;22;20006;-66
2021/12/31 14:32:03;;;;;;;16.50;5.97;;;;;;;;;;6268742;22;20004;-68
2021/12/31 14:34:31;;;;;;;14.57;4.10;;;;;;;;;;6268068;22;20065;-66
2021/12/31 14:36:59;;;;;;;14.23;4.75;;;;;;;;;;6268396;22;20003;-65
2021/12/31 14:39:27;;;;;;;13.13;3.80;;;;;;;;;;6266761;22;20008;-65
2021/12/31 14:41:54;;;;;;;18.45;5.03;;;;;;;;;;6268677;22;20004;-68